Time;durP1;ratioP1;P1;durP2;ratioP2;P2;SDS_P1;SDS_P2;PMS_P1;PMS_P2;Temp;Humidity;BMP_temperature;BMP_pressure;BME280_temperature;BME280_humidity;BME280_pressure;Samples;Min_cycle;Max_cycle;Signal;HPM_P1;HPM_P2
2021/07/13 00:02:23;;;;;;;79.72;55.92;;;19.10;99.90;;;;;;5100093;28;20028;-82
2021/07/13 00:04:50;;;;;;;85.28;56.00;;;19.00;99.90;;;;;;5085775;28;20406;-82
2021/07/13 00:07:16;;;;;;;79.35;54.40;;;19.00;99.90;;;;;;5096534;28;20062;-81
2021/07/13 00:09:44;;;;;;;85.95;56.65;;;18.90;99.90;;;;;;5097926;28;20059;-80
2021/07/13 00:12:10;;;;;;;84.53;55.28;;;19.00;99.90;;;;;;5100098;28;20035;-81
2021/07/13 00:14:36;;;;;;;77.03;53.03;;;18.90;99.90;;;;;;5098071;28;20096;-81
2021/07/13 00:17:06;;;;;;;78.22;52.55;;;19.00;99.90;;;;;;5098227;28;20032;-83
2021/07/13 00:19:34;;;;;;;73.20;51.38;;;18.90;99.90;;;;;;5082042;28;20367;-80
2021/07/13 00:22:00;;;;;;;78.75;52.90;;;19.00;99.90;;;;;;5100375;28;20043;-82
2021/07/13 00:24:26;;;;;;;89.00;53.65;;;19.00;99.90;;;;;;5099461;28;20467;-81
2021/07/13 00:26:52;;;;;;;79.13;53.47;;;19.00;99.90;;;;;;5104201;28;20055;-82
2021/07/13 00:29:18;;;;;;;84.03;55.53;;;18.90;99.90;;;;;;5100711;28;20452;-83
2021/07/13 00:31:43;;;;;;;80.60;53.83;;;19.00;99.90;;;;;;5101225;28;20032;-81
2021/07/13 00:34:09;;;;;;;80.38;54.00;;;19.00;99.90;;;;;;5099921;28;20201;-82
2021/07/13 00:36:36;;;;;;;81.43;54.15;;;19.00;99.90;;;;;;5106614;28;20071;-81
2021/07/13 00:39:02;;;;;;;82.82;54.28;;;19.00;99.90;;;;;;5099567;28;20442;-83
2021/07/13 00:41:28;;;;;;;81.13;53.88;;;19.00;99.90;;;;;;5104102;28;20035;-82
2021/07/13 00:43:54;;;;;;;96.60;55.35;;;19.00;99.90;;;;;;5098914;28;20048;-82
2021/07/13 00:46:20;;;;;;;88.30;56.13;;;19.00;99.90;;;;;;5087854;28;20032;-83
2021/07/13 00:48:46;;;;;;;84.20;52.63;;;19.10;99.90;;;;;;5100798;28;20055;-83
2021/07/13 00:51:12;;;;;;;90.88;56.53;;;18.90;99.90;;;;;;5100299;28;20070;-82
2021/07/13 00:53:43;;;;;;;86.13;55.17;;;18.90;99.90;;;;;;5096217;28;20055;-83
2021/07/13 00:56:11;;;;;;;87.07;55.55;;;18.90;99.90;;;;;;5095633;28;20457;-82
2021/07/13 00:58:37;;;;;;;89.32;55.20;;;18.80;99.90;;;;;;5096768;28;20135;-83
2021/07/13 01:01:04;;;;;;;90.18;55.45;;;18.80;99.90;;;;;;5099066;28;20060;-81
2021/07/13 01:03:30;;;;;;;87.72;57.08;;;18.80;99.90;;;;;;5099192;28;20039;-84
2021/07/13 01:05:56;;;;;;;89.13;55.80;;;18.80;99.90;;;;;;5103617;28;20060;-81
2021/07/13 01:08:50;;;;;;;92.18;56.22;;;18.80;99.90;;;;;;5101388;28;20036;-83
2021/07/13 01:11:47;;;;;;;100.25;61.08;;;18.80;99.90;;;;;;5097084;28;20035;-83
2021/07/13 01:14:35;;;;;;;96.93;59.05;;;18.70;99.90;;;;;;5090499;28;20055;-83
2021/07/13 01:17:09;;;;;;;101.35;60.35;;;18.70;99.90;;;;;;5098348;28;20032;-84
2021/07/13 01:19:38;;;;;;;108.47;60.80;;;18.70;99.90;;;;;;5100113;28;20028;-82
2021/07/13 01:22:28;;;;;;;106.93;59.80;;;18.60;99.90;;;;;;5096493;28;20467;-81
2021/07/13 01:25:08;;;;;;;100.50;59.60;;;18.60;99.90;;;;;;5090029;28;20051;-81
2021/07/13 01:27:46;;;;;;;111.05;63.60;;;18.60;99.90;;;;;;5121610;27;20080;-83
2021/07/13 01:30:18;;;;;;;120.80;65.80;;;18.60;99.90;;;;;;5098522;28;20071;-82
2021/07/13 01:32:47;;;;;;;106.47;62.45;;;18.60;99.90;;;;;;5082766;28;20105;-84
2021/07/13 01:35:18;;;;;;;121.38;66.65;;;18.60;99.90;;;;;;5104792;27;20051;-82
2021/07/13 01:37:51;;;;;;;114.75;66.40;;;18.60;99.90;;;;;;5085670;28;20043;-82
2021/07/13 01:40:18;;;;;;;124.82;67.07;;;18.60;99.90;;;;;;5104273;28;20111;-83
2021/07/13 01:42:44;;;;;;;115.45;66.00;;;18.60;99.90;;;;;;5107570;28;20047;-83
2021/07/13 01:45:11;;;;;;;107.43;63.92;;;18.60;99.90;;;;;;5111304;28;20063;-83
2021/07/13 01:47:38;;;;;;;112.47;61.88;;;18.50;99.90;;;;;;5101688;28;20063;-83
2021/07/13 01:50:07;;;;;;;112.00;65.22;;;18.50;99.90;;;;;;5125934;28;20042;-84
2021/07/13 01:52:34;;;;;;;108.45;63.13;;;18.50;99.90;;;;;;5082500;28;20084;-82
2021/07/13 01:55:03;;;;;;;108.22;63.47;;;18.60;99.90;;;;;;5107804;28;20056;-82
2021/07/13 01:57:31;;;;;;;104.45;61.85;;;18.50;99.90;;;;;;5120486;28;20035;-81
2021/07/13 01:59:59;;;;;;;108.53;62.78;;;18.50;99.90;;;;;;5101028;28;20035;-82
2021/07/13 02:02:27;;;;;;;111.25;63.30;;;18.50;99.90;;;;;;5100970;28;20478;-83
2021/07/13 02:04:55;;;;;;;111.35;62.28;;;18.50;99.90;;;;;;5106683;28;20042;-82
2021/07/13 02:07:23;;;;;;;108.97;62.78;;;18.50;99.90;;;;;;5088711;28;20475;-82
2021/07/13 02:09:49;;;;;;;109.60;61.88;;;18.50;99.90;;;;;;5102867;28;20424;-83
2021/07/13 02:12:17;;;;;;;110.13;63.03;;;18.40;99.90;;;;;;5122172;28;20058;-83
2021/07/13 02:14:43;;;;;;;108.95;62.42;;;18.40;99.90;;;;;;5097419;28;20379;-82
2021/07/13 02:17:09;;;;;;;114.72;61.92;;;18.50;99.90;;;;;;5119428;28;20114;-81
2021/07/13 02:19:35;;;;;;;104.10;61.05;;;18.40;99.90;;;;;;5107904;28;20036;-82
2021/07/13 02:22:02;;;;;;;107.35;60.97;;;18.50;99.90;;;;;;5106379;28;20031;-82
2021/07/13 02:24:38;;;;;;;111.55;63.50;;;18.50;99.90;;;;;;5118170;28;20039;-81
2021/07/13 02:27:17;;;;;;;107.13;61.60;;;18.60;99.90;;;;;;5104053;28;20043;-82
2021/07/13 02:29:54;;;;;;;111.40;62.92;;;18.50;99.90;;;;;;5123933;28;20470;-84
2021/07/13 02:32:39;;;;;;;95.55;58.83;;;18.40;99.90;;;;;;5099856;28;20036;-83
2021/07/13 02:35:07;;;;;;;93.63;56.90;;;18.40;99.90;;;;;;5099527;28;20130;-83
2021/07/13 02:37:36;;;;;;;94.43;59.35;;;18.40;99.90;;;;;;5120828;27;20027;-82
2021/07/13 02:40:08;;;;;;;104.13;62.85;;;18.50;99.90;;;;;;5129014;27;20039;-82
2021/07/13 02:42:35;;;;;;;96.07;60.97;;;18.50;99.90;;;;;;5125663;27;20067;-84
2021/07/13 02:45:01;;;;;;;99.88;63.08;;;18.50;99.90;;;;;;5121544;27;20059;-84
2021/07/13 02:47:30;;;;;;;111.82;63.55;;;18.40;99.90;;;;;;5103003;27;20036;-83
2021/07/13 02:49:56;;;;;;;103.15;60.67;;;18.40;99.90;;;;;;5105366;27;20038;-82
2021/07/13 02:52:29;;;;;;;102.07;63.33;;;18.40;99.90;;;;;;5125866;27;20462;-83
2021/07/13 02:55:14;;;;;;;104.55;62.63;;;18.40;99.90;;;;;;5105745;27;20039;-82
2021/07/13 02:57:42;;;;;;;108.65;63.90;;;18.30;99.90;;;;;;5123909;27;20143;-83
2021/07/13 03:00:09;;;;;;;116.82;64.18;;;18.30;99.90;;;;;;5121070;27;20131;-82
2021/07/13 03:02:37;;;;;;;123.45;68.78;;;18.30;99.90;;;;;;5099885;27;20043;-82
2021/07/13 03:05:04;;;;;;;123.32;69.00;;;18.30;99.90;;;;;;5105785;27;20039;-81
2021/07/13 03:07:32;;;;;;;123.57;67.13;;;18.30;99.90;;;;;;5121641;27;20514;-82
2021/07/13 03:09:58;;;;;;;132.90;72.07;;;18.30;99.90;;;;;;5108850;27;20067;-82
2021/07/13 03:12:25;;;;;;;132.32;71.10;;;18.30;99.90;;;;;;5123098;27;20028;-81
2021/07/13 03:14:53;;;;;;;152.48;75.15;;;18.30;99.90;;;;;;5101193;28;20402;-84
2021/07/13 03:17:20;;;;;;;158.05;81.03;;;18.30;99.90;;;;;;5119131;27;20092;-82
2021/07/13 03:19:47;;;;;;;175.82;81.68;;;18.30;99.90;;;;;;5124987;27;20058;-82
2021/07/13 03:22:26;;;;;;;179.73;79.50;;;18.30;99.90;;;;;;5099574;27;20084;-82
2021/07/13 03:24:53;;;;;;;180.57;82.53;;;18.30;99.90;;;;;;5119469;27;20055;-84
2021/07/13 03:27:21;;;;;;;210.20;87.38;;;18.30;99.90;;;;;;5124628;27;20517;-83
2021/07/13 03:29:55;;;;;;;261.30;89.25;;;18.30;99.90;;;;;;5100564;27;20035;-83
2021/07/13 03:32:22;;;;;;;257.20;92.47;;;18.30;99.90;;;;;;5120609;27;20402;-81
2021/07/13 03:35:07;;;;;;;258.15;92.28;;;18.30;99.90;;;;;;5125538;27;20039;-83
2021/07/13 03:37:33;;;;;;;;;;;18.20;99.90;;;;;;5118272;27;20068;-82
2021/07/13 03:39:59;;;;;;;218.38;87.40;;;18.20;99.90;;;;;;5121540;27;19947;-81
2021/07/13 03:42:26;;;;;;;214.75;86.43;;;18.20;99.90;;;;;;5122425;27;20481;-84
2021/07/13 03:44:52;;;;;;;216.38;86.53;;;18.20;99.90;;;;;;5107634;27;20043;-84
2021/07/13 03:47:19;;;;;;;222.63;88.03;;;18.20;99.90;;;;;;5128576;27;20100;-83
2021/07/13 03:49:48;;;;;;;229.80;90.40;;;18.20;99.90;;;;;;5080245;28;20043;-82
2021/07/13 03:52:14;;;;;;;240.63;92.50;;;18.30;99.90;;;;;;5093661;28;20058;-82
2021/07/13 03:54:40;;;;;;;352.77;93.30;;;18.30;99.90;;;;;;5103702;27;20035;-84
2021/07/13 03:57:06;;;;;;;336.88;93.78;;;18.30;99.90;;;;;;5122963;27;20032;-83
2021/07/13 03:59:32;;;;;;;309.23;93.28;;;18.30;99.90;;;;;;5101912;27;20023;-82
2021/07/13 04:01:58;;;;;;;349.85;97.35;;;18.30;99.90;;;;;;5120588;27;20031;-83
2021/07/13 04:04:24;;;;;;;300.58;87.97;;;18.40;99.90;;;;;;5118552;27;20032;-82
2021/07/13 04:06:50;;;;;;;392.63;91.75;;;18.30;99.90;;;;;;5119150;27;20040;-82
2021/07/13 04:09:16;;;;;;;419.23;83.72;;;18.40;99.90;;;;;;5108166;27;20043;-82
2021/07/13 04:11:42;;;;;;;425.42;81.30;;;18.30;99.90;;;;;;5104582;27;20054;-82
2021/07/13 04:14:08;;;;;;;402.67;88.32;;;18.30;99.90;;;;;;5106026;27;20035;-83
2021/07/13 04:16:34;;;;;;;486.48;93.10;;;18.30;99.90;;;;;;5105209;27;20063;-82
2021/07/13 04:19:00;;;;;;;414.50;93.60;;;18.30;99.90;;;;;;5121591;27;20047;-82
2021/07/13 04:21:27;;;;;;;449.15;92.85;;;18.30;99.90;;;;;;5119597;27;20520;-81
2021/07/13 04:23:53;;;;;;;338.90;88.43;;;18.40;99.90;;;;;;5126577;27;20038;-83
2021/07/13 04:26:19;;;;;;;282.75;87.78;;;18.40;99.90;;;;;;5104746;27;20039;-83
2021/07/13 04:28:45;;;;;;;259.08;84.60;;;18.40;99.90;;;;;;5101179;27;20445;-81
2021/07/13 04:31:11;;;;;;;299.25;81.70;;;18.40;99.90;;;;;;5125715;27;20106;-82
2021/07/13 04:33:37;;;;;;;265.42;79.55;;;18.50;99.90;;;;;;5118214;27;20514;-82
2021/07/13 04:36:03;;;;;;;242.55;79.40;;;18.50;99.90;;;;;;5105471;27;20119;-84
2021/07/13 04:38:29;;;;;;;255.38;85.28;;;18.50;99.90;;;;;;5092434;27;20043;-84
2021/07/13 04:40:55;;;;;;;237.15;79.00;;;18.50;99.90;;;;;;5119458;27;20487;-81
2021/07/13 04:43:22;;;;;;;205.45;76.47;;;18.60;99.90;;;;;;5100473;27;20043;-82
2021/07/13 04:45:48;;;;;;;188.75;77.07;;;18.60;99.90;;;;;;5134099;27;20463;-81
2021/07/13 04:48:15;;;;;;;198.57;76.65;;;18.60;99.90;;;;;;5103817;27;20062;-80
2021/07/13 04:50:41;;;;;;;177.05;72.85;;;18.60;99.90;;;;;;5119972;27;20035;-84
2021/07/13 04:53:07;;;;;;;109.32;58.38;;;18.70;99.90;;;;;;5103725;27;20474;-84
2021/07/13 04:55:33;;;;;;;136.85;65.35;;;18.80;99.90;;;;;;5105785;27;20040;-85
2021/07/13 04:57:59;;;;;;;115.28;58.33;;;18.90;99.90;;;;;;5106776;28;20078;-84
2021/07/13 05:00:25;;;;;;;111.38;57.30;;;19.00;99.90;;;;;;5107881;27;20054;-84
2021/07/13 05:02:51;;;;;;;128.48;62.60;;;19.10;99.90;;;;;;5099666;27;20454;-85
2021/07/13 05:05:17;;;;;;;104.95;55.40;;;19.10;99.90;;;;;;5103349;27;20041;-82
2021/07/13 05:07:44;;;;;;;100.40;52.60;;;19.20;99.90;;;;;;5105606;27;20046;-81
2021/07/13 05:10:12;;;;;;;99.05;54.22;;;19.20;99.90;;;;;;5117951;27;20390;-83
2021/07/13 05:12:39;;;;;;;107.32;55.30;;;19.20;99.90;;;;;;5105703;27;20110;-83
2021/07/13 05:15:07;;;;;;;84.38;48.13;;;19.20;99.90;;;;;;5097587;28;20525;-85
2021/07/13 05:17:33;;;;;;;86.30;46.92;;;19.30;99.90;;;;;;5095640;27;20043;-87
2021/07/13 05:23:40;;;;;;;77.50;43.80;;;19.20;99.90;;;;;;5116935;28;20084;-84
2021/07/13 05:26:07;;;;;;;81.20;44.25;;;19.30;99.90;;;;;;5081546;28;20059;-84
2021/07/13 05:28:38;;;;;;;85.90;44.85;;;19.30;99.90;;;;;;5085903;28;20055;-84
2021/07/13 05:31:04;;;;;;;91.10;46.17;;;19.30;99.90;;;;;;5098204;28;20036;-86
2021/07/13 05:33:33;;;;;;;96.35;46.88;;;19.30;99.90;;;;;;5092684;28;20428;-86
2021/07/13 05:35:59;;;;;;;98.55;45.42;;;19.30;99.90;;;;;;5102007;28;20044;-86
2021/07/13 05:38:44;;;;;;;95.72;45.40;;;19.30;99.90;;;;;;5106184;28;20038;-87
2021/07/13 05:41:16;;;;;;;107.82;46.20;;;19.20;99.90;;;;;;5091432;28;20048;-86
2021/07/13 05:43:46;;;;;;;114.05;46.58;;;19.20;99.90;;;;;;5087051;28;20047;-85
2021/07/13 05:46:12;;;;;;;95.38;43.67;;;19.10;99.90;;;;;;5088868;28;20070;-86
2021/07/13 05:48:38;;;;;;;122.40;47.22;;;19.20;99.90;;;;;;5102423;28;20412;-82
2021/07/13 05:51:04;;;;;;;128.38;48.40;;;19.10;99.90;;;;;;5097309;28;20063;-79
2021/07/13 05:53:29;;;;;;;132.07;48.78;;;19.10;99.90;;;;;;5113666;28;20048;-81
2021/07/13 05:55:55;;;;;;;125.93;49.20;;;19.10;99.90;;;;;;5097313;28;20391;-80
2021/07/13 05:58:22;;;;;;;119.05;46.08;;;19.10;99.90;;;;;;5101811;28;20084;-80
2021/07/13 06:00:48;;;;;;;111.00;44.17;;;19.20;99.90;;;;;;5100768;28;20505;-80
2021/07/13 06:03:14;;;;;;;119.93;44.40;;;19.10;99.90;;;;;;5099471;28;20042;-82
2021/07/13 06:05:39;;;;;;;93.22;41.95;;;19.10;99.90;;;;;;5101277;28;20032;-81
2021/07/13 06:08:05;;;;;;;94.25;40.65;;;19.20;99.90;;;;;;5098910;28;20032;-81
2021/07/13 06:10:31;;;;;;;87.90;38.83;;;19.20;99.90;;;;;;5099976;28;20043;-83
2021/07/13 06:12:57;;;;;;;78.65;36.15;;;19.30;99.90;;;;;;5104776;28;20052;-81
2021/07/13 06:15:23;;;;;;;73.63;35.78;;;19.20;99.90;;;;;;5106816;28;20445;-83
2021/07/13 06:17:49;;;;;;;82.70;37.30;;;19.20;99.90;;;;;;5097701;28;20048;-83
2021/07/13 06:20:15;;;;;;;54.85;30.85;;;19.30;99.90;;;;;;5106047;28;20050;-83
2021/07/13 06:22:41;;;;;;;53.10;31.10;;;19.30;99.90;;;;;;5098502;28;20119;-81
2021/07/13 06:25:08;;;;;;;57.40;31.42;;;19.30;99.90;;;;;;5108523;28;20032;-82
2021/07/13 06:27:34;;;;;;;60.63;32.10;;;19.40;99.90;;;;;;5124761;27;20744;-82
2021/07/13 06:30:00;;;;;;;56.50;30.88;;;19.50;99.90;;;;;;5125181;27;20039;-83
2021/07/13 06:32:27;;;;;;;48.30;28.50;;;19.60;99.90;;;;;;5103263;27;20036;-82
2021/07/13 06:34:52;;;;;;;44.47;28.00;;;19.50;99.90;;;;;;5102791;28;20051;-82
2021/07/13 06:37:18;;;;;;;39.63;25.88;;;19.40;99.90;;;;;;5100019;27;20454;-83
2021/07/13 06:39:44;;;;;;;42.13;28.02;;;19.40;99.90;;;;;;5114318;27;20035;-83
2021/07/13 06:42:10;;;;;;;42.03;27.45;;;19.50;99.90;;;;;;5146798;27;20035;-82
2021/07/13 06:44:36;;;;;;;42.13;24.33;;;19.50;99.90;;;;;;5089248;27;20062;-83
2021/07/13 06:47:02;;;;;;;38.55;26.30;;;19.40;99.90;;;;;;5127336;27;20039;-82
2021/07/13 06:50:06;;;;;;;43.03;25.98;;;19.50;99.90;;;;;;5148963;27;20060;-82
2021/07/13 06:52:32;;;;;;;40.22;26.55;;;19.60;99.90;;;;;;5149474;27;20015;-82
2021/07/13 06:55:02;;;;;;;40.00;24.15;;;19.60;99.90;;;;;;5124952;27;20058;-83
2021/07/13 06:57:28;;;;;;;36.15;23.95;;;19.70;99.90;;;;;;5131165;27;20121;-81
2021/07/13 06:59:59;;;;;;;43.40;27.00;;;19.60;99.90;;;;;;5107684;27;20044;-80
2021/07/13 07:02:28;;;;;;;45.63;26.70;;;19.60;99.90;;;;;;5105408;27;20046;-82
2021/07/13 07:04:54;;;;;;;45.33;25.60;;;19.60;99.90;;;;;;5131371;27;20041;-83
2021/07/13 07:07:20;;;;;;;41.85;25.58;;;19.60;99.90;;;;;;5124901;27;20039;-82
2021/07/13 07:09:46;;;;;;;34.78;24.30;;;19.80;99.90;;;;;;5128927;27;20035;-82
2021/07/13 07:12:12;;;;;;;39.08;25.10;;;19.80;99.90;;;;;;5098283;27;20073;-85
2021/07/13 07:14:38;;;;;;;33.70;22.48;;;19.90;99.90;;;;;;5096004;27;20039;-83
2021/07/13 07:17:04;;;;;;;34.95;23.08;;;20.00;99.90;;;;;;5087588;27;20043;-83
2021/07/13 07:19:29;;;;;;;32.38;23.13;;;20.20;99.90;;;;;;5099337;27;20031;-83
2021/07/13 07:21:55;;;;;;;38.90;23.75;;;20.30;99.90;;;;;;5119812;27;20077;-84
2021/07/13 07:24:21;;;;;;;42.15;23.95;;;20.50;99.90;;;;;;5131782;27;20039;-82
2021/07/13 07:26:47;;;;;;;36.33;23.27;;;20.60;99.90;;;;;;5099229;27;20047;-83
2021/07/13 07:29:13;;;;;;;29.05;21.15;;;20.70;99.90;;;;;;5117766;27;20039;-83
2021/07/13 07:31:38;;;;;;;31.40;21.90;;;20.80;99.90;;;;;;5115531;27;20089;-82
2021/07/13 07:34:04;;;;;;;32.05;21.20;;;20.70;99.90;;;;;;5102329;28;20036;-83
2021/07/13 07:36:30;;;;;;;31.67;21.58;;;20.70;99.90;;;;;;5120439;27;20063;-83
2021/07/13 07:38:56;;;;;;;31.73;21.13;;;20.90;99.90;;;;;;5136229;27;20394;-82
2021/07/13 07:41:22;;;;;;;26.88;20.42;;;20.80;99.90;;;;;;5117437;27;20031;-83
2021/07/13 07:43:49;;;;;;;29.83;21.55;;;20.90;99.90;;;;;;5116586;27;20460;-82
2021/07/13 07:46:16;;;;;;;35.15;21.88;;;20.90;99.90;;;;;;5132841;27;20222;-83
2021/07/13 07:48:41;;;;;;;30.38;21.58;;;20.90;99.90;;;;;;5129762;27;20031;-81
2021/07/13 07:51:08;;;;;;;30.05;22.00;;;21.00;99.90;;;;;;5095262;28;20046;-82
2021/07/13 07:53:34;;;;;;;29.33;21.15;;;21.10;99.90;;;;;;5079992;27;20043;-82
2021/07/13 07:55:59;;;;;;;30.83;20.40;;;21.30;99.90;;;;;;5102307;28;20500;-82
2021/07/13 07:58:25;;;;;;;25.98;21.42;;;21.30;99.90;;;;;;5127740;27;20080;-82
2021/07/13 08:00:51;;;;;;;26.85;21.08;;;21.20;99.90;;;;;;5093483;27;20043;-85
2021/07/13 08:03:17;;;;;;;26.92;20.67;;;21.20;99.90;;;;;;5116614;27;20043;-84
2021/07/13 08:05:43;;;;;;;26.85;20.20;;;21.10;99.90;;;;;;5128006;27;20084;-83
2021/07/13 08:08:09;;;;;;;30.98;20.98;;;21.20;99.90;;;;;;5097571;28;20048;-85
2021/07/13 08:10:36;;;;;;;24.92;19.20;;;21.20;99.90;;;;;;5097583;28;20031;-84
2021/07/13 08:13:04;;;;;;;30.73;20.98;;;21.30;99.90;;;;;;5101271;27;20490;-84
2021/07/13 08:15:30;;;;;;;28.00;20.13;;;21.30;99.90;;;;;;5102128;27;20165;-82
2021/07/13 08:17:56;;;;;;;27.20;18.92;;;21.40;99.90;;;;;;5118059;27;20031;-83
2021/07/13 08:20:22;;;;;;;26.73;18.88;;;21.50;99.90;;;;;;5101673;27;20078;-83
2021/07/13 08:22:49;;;;;;;25.90;18.13;;;21.70;99.90;;;;;;5110964;27;20063;-83
2021/07/13 08:25:19;;;;;;;24.63;17.92;;;21.80;99.90;;;;;;5105512;27;20134;-84
2021/07/13 08:27:46;;;;;;;23.35;17.08;;;22.00;99.90;;;;;;5103916;27;20403;-83
2021/07/13 08:30:12;;;;;;;26.20;17.27;;;22.00;99.90;;;;;;5100355;28;20039;-83
2021/07/13 08:32:38;;;;;;;23.00;17.35;;;22.10;99.90;;;;;;5088226;27;20058;-83
2021/07/13 08:35:05;;;;;;;21.85;16.80;;;22.10;99.90;;;;;;5092653;27;20223;-83
2021/07/13 08:37:33;;;;;;;24.92;15.95;;;21.90;99.90;;;;;;5105578;27;20050;-84
2021/07/13 08:40:12;;;;;;;23.58;16.30;;;22.10;99.90;;;;;;5112062;27;20131;-86
2021/07/13 08:43:13;;;;;;;21.90;15.57;;;22.40;99.90;;;;;;5094348;28;20131;-89
2021/07/13 08:46:06;;;;;;;;;;;;;;;;;;;;;
2021/07/13 08:52:35;;;;;;;;;;;;;;;;;;;;;
2021/07/13 08:55:14;;;;;;;24.23;16.98;;;22.80;99.90;;;;;;4977391;28;20066;-91
2021/07/13 08:57:58;;;;;;;27.50;17.13;;;22.60;99.90;;;;;;4967541;28;20379;-89
2021/07/13 09:04:09;;;;;;;23.42;16.42;;;22.60;99.90;;;;;;4921783;29;20040;-87
2021/07/13 09:07:01;;;;;;;24.75;17.08;;;22.60;99.90;;;;;;4925561;29;20047;-87
2021/07/13 09:09:32;;;;;;;23.02;16.95;;;22.70;99.90;;;;;;4914608;29;20051;-87
2021/07/13 09:12:22;;;;;;;26.80;16.17;;;22.60;99.90;;;;;;4911296;29;20051;-86
2021/07/13 09:15:00;;;;;;;24.92;15.60;;;22.60;99.90;;;;;;4922804;28;20380;-89
2021/07/13 09:17:49;;;;;;;24.55;16.67;;;22.80;99.90;;;;;;4929729;29;20051;-89
2021/07/13 09:20:37;;;;;;;24.52;15.93;;;22.80;99.90;;;;;;4847701;29;20041;-88
2021/07/13 09:23:23;;;;;;;21.25;15.48;;;22.60;99.90;;;;;;4898148;29;20048;-88
2021/07/13 09:26:09;;;;;;;19.90;14.98;;;22.80;99.90;;;;;;4912933;29;20135;-86
2021/07/13 09:33:31;;;;;;;18.15;15.23;;;22.80;99.90;;;;;;4911273;29;20439;-90
2021/07/13 09:47:53;;;;;;;18.70;14.90;;;22.70;99.90;;;;;;4992063;28;20108;-88
2021/07/13 10:29:46;;;;;;;26.63;18.23;;;22.70;99.90;;;;;;519896;26;20347;-87
2021/07/13 10:36:40;;;;;;;28.42;19.27;;;22.60;99.90;;;;;;4952654;29;20071;-87
2021/07/13 10:43:27;;;;;;;27.40;19.00;;;22.50;99.90;;;;;;4934584;29;20122;-86
2021/07/13 10:46:13;;;;;;;26.95;18.92;;;22.40;99.90;;;;;;4872636;29;20061;-86
2021/07/13 10:49:06;;;;;;;30.25;19.40;;;22.30;99.90;;;;;;4874578;29;20053;-88
2021/07/13 10:52:15;;;;;;;31.75;20.08;;;22.40;99.90;;;;;;4855549;29;20220;-88
2021/07/13 10:55:30;;;;;;;30.77;19.10;;;22.20;99.90;;;;;;4859872;29;20049;-88
2021/07/13 10:59:04;;;;;;;31.30;18.58;;;22.20;99.90;;;;;;4788155;29;20057;-88
2021/07/13 11:05:46;;;;;;;27.40;18.00;;;22.30;99.90;;;;;;4808758;29;20131;-85
2021/07/13 11:55:29;;;;;;;45.00;26.60;;;21.30;99.90;;;;;;6200229;22;2509587;-83
2021/07/13 11:57:56;;;;;;;35.20;24.02;;;21.20;99.90;;;;;;6228492;23;20083;-90
2021/07/13 12:00:28;;;;;;;39.40;27.25;;;21.20;99.90;;;;;;6254013;23;20042;-81
2021/07/13 12:02:55;;;;;;;45.05;27.17;;;21.20;99.90;;;;;;6262662;22;20274;-86
2021/07/13 12:05:21;;;;;;;47.45;28.30;;;21.30;99.90;;;;;;6252423;22;20004;-87
2021/07/13 12:07:50;;;;;;;43.30;27.85;;;21.10;99.90;;;;;;6251597;23;20011;-87
2021/07/13 12:10:16;;;;;;;38.58;26.48;;;21.10;99.90;;;;;;6262803;22;20012;-86
2021/07/13 12:12:48;;;;;;;44.92;25.35;;;21.00;99.90;;;;;;6261807;22;20019;-86
2021/07/13 12:15:21;;;;;;;40.75;25.75;;;21.20;99.90;;;;;;6251565;23;20015;-86
2021/07/13 12:17:47;;;;;;;40.33;25.48;;;21.00;99.90;;;;;;6251044;23;20016;-82
2021/07/13 12:20:14;;;;;;;44.35;26.20;;;20.90;99.90;;;;;;6255558;23;20070;-81
2021/07/13 12:22:40;;;;;;;36.55;24.52;;;20.90;99.90;;;;;;6256570;22;20019;-81
2021/07/13 12:25:08;;;;;;;33.13;23.15;;;20.90;99.90;;;;;;6243923;23;20012;-83
2021/07/13 12:27:35;;;;;;;37.50;24.23;;;20.80;99.90;;;;;;6255290;23;20008;-83
2021/07/13 12:30:13;;;;;;;47.03;27.10;;;20.80;99.90;;;;;;6255106;23;20020;-83
2021/07/13 12:32:39;;;;;;;38.95;23.67;;;20.80;99.90;;;;;;6245318;23;20027;-82
2021/07/13 12:35:11;;;;;;;35.67;23.83;;;20.90;99.90;;;;;;6244720;23;20019;-82
2021/07/13 12:37:37;;;;;;;35.67;23.80;;;20.90;99.90;;;;;;6218171;23;20328;-84
2021/07/13 12:40:15;;;;;;;39.13;23.38;;;20.80;99.90;;;;;;6244158;23;20057;-84
2021/07/13 12:42:45;;;;;;;34.75;23.27;;;20.80;99.90;;;;;;6253128;23;20020;-82
2021/07/13 12:45:23;;;;;;;34.25;21.20;;;20.80;99.90;;;;;;6218503;23;20012;-81
2021/07/13 12:47:50;;;;;;;32.85;21.85;;;20.80;99.90;;;;;;6242935;23;20016;-81
2021/07/13 12:50:26;;;;;;;34.28;22.77;;;20.70;99.90;;;;;;6251906;22;20016;-81
2021/07/13 12:52:55;;;;;;;30.88;22.13;;;20.70;99.90;;;;;;6242788;23;20091;-81
2021/07/13 12:55:43;;;;;;;28.77;20.58;;;20.60;99.90;;;;;;6249765;22;20024;-81
2021/07/13 12:58:25;;;;;;;31.55;21.75;;;20.60;99.90;;;;;;6243519;23;20023;-81
2021/07/13 13:00:57;;;;;;;31.08;21.63;;;20.50;99.90;;;;;;6217269;23;20027;-81
2021/07/13 13:03:27;;;;;;;30.02;19.88;;;20.50;99.90;;;;;;6244853;22;20015;-81
2021/07/13 13:05:57;;;;;;;29.10;20.58;;;20.60;99.90;;;;;;6245036;22;20114;-81
2021/07/13 13:08:43;;;;;;;30.45;19.75;;;20.60;99.90;;;;;;6243275;23;20564;-81
2021/07/13 13:11:12;;;;;;;33.65;21.77;;;20.50;99.90;;;;;;6255262;22;20012;-81
2021/07/13 13:13:40;;;;;;;31.60;21.10;;;20.50;99.90;;;;;;6253241;23;20012;-81
2021/07/13 13:16:21;;;;;;;32.03;19.55;;;20.50;99.90;;;;;;6242662;23;20455;-81
2021/07/13 13:18:47;;;;;;;33.08;18.73;;;20.50;99.90;;;;;;6217138;23;20009;-81
2021/07/13 13:21:13;;;;;;;31.92;18.55;;;20.60;99.90;;;;;;6217605;23;20437;-82
2021/07/13 13:23:39;;;;;;;31.30;18.95;;;20.60;99.90;;;;;;6243246;23;20027;-83
2021/07/13 13:26:07;;;;;;;33.95;18.77;;;20.60;99.90;;;;;;6255943;23;20368;-83
2021/07/13 13:28:36;;;;;;;35.28;18.60;;;20.60;99.90;;;;;;6254963;23;20076;-83
2021/07/13 13:31:02;;;;;;;36.30;20.02;;;20.50;99.90;;;;;;6243684;23;20016;-82
2021/07/13 13:33:28;;;;;;;38.28;20.63;;;20.50;99.90;;;;;;6253873;23;20035;-84
2021/07/13 13:36:17;;;;;;;36.60;21.05;;;20.50;99.90;;;;;;6243967;23;20023;-81
2021/07/13 13:38:46;;;;;;;38.85;22.27;;;20.50;99.90;;;;;;6217817;23;20089;-80
2021/07/13 13:41:12;;;;;;;35.03;20.88;;;20.50;99.90;;;;;;6242350;23;20065;-80
2021/07/13 13:43:39;;;;;;;40.10;22.33;;;20.40;99.90;;;;;;6242219;23;20016;-80
2021/07/13 13:46:05;;;;;;;38.78;23.08;;;20.40;99.90;;;;;;6254318;22;20286;-80
2021/07/13 13:48:31;;;;;;;38.67;22.98;;;20.50;99.90;;;;;;6254023;23;20111;-80
2021/07/13 13:50:57;;;;;;;41.97;22.27;;;20.50;99.90;;;;;;6242355;23;20448;-80
2021/07/13 13:53:24;;;;;;;43.42;23.50;;;20.50;99.90;;;;;;6242681;23;20035;-81
2021/07/13 13:55:49;;;;;;;45.67;24.13;;;20.40;99.90;;;;;;6242207;23;20098;-81
2021/07/13 13:58:16;;;;;;;39.30;20.80;;;20.50;99.90;;;;;;6241912;23;20035;-80
2021/07/13 14:00:42;;;;;;;46.45;24.52;;;20.40;99.90;;;;;;6250998;23;20012;-80
2021/07/13 14:03:07;;;;;;;45.95;23.20;;;20.30;99.90;;;;;;6250815;23;20304;-80
2021/07/13 14:05:36;;;;;;;44.78;22.25;;;20.30;99.90;;;;;;6242037;23;20111;-81
2021/07/13 14:08:02;;;;;;;45.60;22.55;;;20.40;99.90;;;;;;6241836;23;20101;-81
2021/07/13 14:10:28;;;;;;;44.03;21.55;;;20.40;99.90;;;;;;6242312;23;20016;-80
2021/07/13 14:12:54;;;;;;;45.22;21.98;;;20.40;99.90;;;;;;6251900;23;20019;-81
2021/07/13 14:15:20;;;;;;;42.67;22.20;;;20.30;99.90;;;;;;6254082;23;20043;-81
2021/07/13 14:17:48;;;;;;;44.83;22.70;;;20.40;99.90;;;;;;6243080;22;20016;-81
2021/07/13 14:20:16;;;;;;;46.08;21.33;;;20.30;99.90;;;;;;6243551;22;20020;-80
2021/07/13 14:22:44;;;;;;;49.38;24.73;;;20.20;99.90;;;;;;6240849;23;20012;-80
2021/07/13 14:25:12;;;;;;;49.33;24.42;;;20.20;99.90;;;;;;6251994;23;20486;-80
2021/07/13 14:27:38;;;;;;;46.92;23.98;;;20.20;99.90;;;;;;6251047;23;20004;-80
2021/07/13 14:30:05;;;;;;;54.25;24.58;;;20.20;99.90;;;;;;6253598;23;20023;-80
2021/07/13 14:32:31;;;;;;;45.55;22.42;;;20.20;99.90;;;;;;6240671;23;20012;-80
2021/07/13 14:38:38;;;;;;;49.92;24.38;;;20.20;99.90;;;;;;6268495;22;20082;-81
2021/07/13 14:41:04;;;;;;;50.70;24.05;;;20.20;99.90;;;;;;6278728;23;20439;-81
2021/07/13 14:43:30;;;;;;;53.08;24.92;;;20.20;99.90;;;;;;6275314;23;20027;-81
2021/07/13 14:45:56;;;;;;;54.33;25.55;;;20.20;99.90;;;;;;6264907;22;20016;-81
2021/07/13 14:48:22;;;;;;;53.03;25.25;;;20.10;99.90;;;;;;6275626;23;20016;-81
2021/07/13 14:50:49;;;;;;;50.78;25.02;;;20.00;99.90;;;;;;6264023;22;20016;-81